Time;durP1;ratioP1;P1;durP2;ratioP2;P2;SDS_P1;SDS_P2;PMS_P1;PMS_P2;Temp;Humidity;BMP_temperature;BMP_pressure;BME280_temperature;BME280_humidity;BME280_pressure;Samples;Min_cycle;Max_cycle;Signal;HPM_P1;HPM_P2
2021/03/27 00:01:51;;;;;;;;;;;18.50;37.70;;;;;;462945;257;1140;-45
2021/03/27 00:03:53;;;;;;;;;;;18.50;37.70;;;;;;462890;257;1167;-45
2021/03/27 00:05:54;;;;;;;;;;;18.50;37.70;;;;;;462952;257;1189;-44
2021/03/27 00:07:55;;;;;;;;;;;18.50;37.70;;;;;;462779;257;1264;-45
2021/03/27 00:09:57;;;;;;;;;;;18.50;37.70;;;;;;462873;257;1069;-45
2021/03/27 00:11:58;;;;;;;;;;;18.50;37.80;;;;;;462988;257;1148;-45
2021/03/27 00:13:59;;;;;;;;;;;18.50;37.70;;;;;;462870;257;1058;-45
2021/03/27 00:16:01;;;;;;;;;;;18.50;37.80;;;;;;462814;257;1047;-45
2021/03/27 00:18:02;;;;;;;;;;;18.50;37.80;;;;;;462865;257;1276;-45
2021/03/27 00:20:03;;;;;;;;;;;18.50;37.80;;;;;;462947;257;2167;-45
2021/03/27 00:22:04;;;;;;;;;;;18.50;37.80;;;;;;462894;257;1081;-45
2021/03/27 00:24:06;;;;;;;;;;;18.50;37.80;;;;;;463069;257;1037;-45
2021/03/27 00:26:07;;;;;;;;;;;18.50;37.80;;;;;;463190;257;1040;-45
2021/03/27 00:28:08;;;;;;;;;;;18.40;37.80;;;;;;462934;257;1098;-45
2021/03/27 00:30:09;;;;;;;;;;;18.50;37.80;;;;;;463068;257;1179;-45
2021/03/27 00:32:12;;;;;;;;;;;18.50;37.70;;;;;;462762;257;1090;-45
2021/03/27 00:34:13;;;;;;;;;;;18.50;37.70;;;;;;462817;257;1531;-45
2021/03/27 00:36:15;;;;;;;;;;;18.50;37.70;;;;;;462923;257;1067;-45
2021/03/27 00:38:16;;;;;;;;;;;18.50;37.70;;;;;;462795;257;1093;-45
2021/03/27 00:40:17;;;;;;;;;;;18.70;37.30;;;;;;462798;257;2202;-45
2021/03/27 00:42:19;;;;;;;;;;;19.00;36.80;;;;;;462917;257;1121;-45
2021/03/27 00:44:20;;;;;;;;;;;19.20;36.30;;;;;;462893;257;1296;-45
2021/03/27 00:46:21;;;;;;;;;;;19.40;36.00;;;;;;463074;257;1112;-45
2021/03/27 00:48:22;;;;;;;;;;;19.50;35.80;;;;;;462862;257;1163;-45
2021/03/27 00:50:24;;;;;;;;;;;19.60;35.70;;;;;;462946;257;1084;-45
2021/03/27 00:52:25;;;;;;;;;;;19.70;35.60;;;;;;462806;257;1230;-45
2021/03/27 00:54:26;;;;;;;;;;;19.70;35.40;;;;;;462936;257;1321;-45
2021/03/27 00:56:27;;;;;;;;;;;19.80;35.30;;;;;;463006;257;1189;-45
2021/03/27 00:58:29;;;;;;;;;;;19.80;35.30;;;;;;463013;257;1091;-45
2021/03/27 01:00:30;;;;;;;;;;;19.90;35.30;;;;;;462940;257;2218;-45
2021/03/27 01:02:31;;;;;;;;;;;19.90;35.20;;;;;;462991;257;1506;-45
2021/03/27 01:04:33;;;;;;;;;;;19.90;35.20;;;;;;462859;257;1214;-45
2021/03/27 01:06:34;;;;;;;;;;;19.90;35.10;;;;;;462796;257;1188;-45
2021/03/27 01:08:35;;;;;;;;;;;20.00;35.10;;;;;;462860;257;1071;-45
2021/03/27 01:10:36;;;;;;;;;;;20.00;35.00;;;;;;463333;257;1080;-45
2021/03/27 01:12:38;;;;;;;;;;;20.00;34.90;;;;;;463075;257;1098;-45
2021/03/27 01:14:39;;;;;;;;;;;20.10;34.90;;;;;;462938;257;1063;-45
2021/03/27 01:16:40;;;;;;;;;;;20.10;34.90;;;;;;463117;257;1091;-45
2021/03/27 01:18:42;;;;;;;;;;;20.10;34.80;;;;;;463065;257;1328;-45
2021/03/27 01:20:43;;;;;;;;;;;20.10;34.80;;;;;;462977;257;2195;-45
2021/03/27 01:22:45;;;;;;;;;;;20.20;34.70;;;;;;462865;257;1084;-45
2021/03/27 01:24:47;;;;;;;;;;;20.20;34.60;;;;;;462978;257;1124;-45
2021/03/27 01:26:47;;;;;;;;;;;20.20;34.60;;;;;;463049;257;1898;-45
2021/03/27 01:28:49;;;;;;;;;;;20.30;34.60;;;;;;463202;257;1085;-45
2021/03/27 01:30:50;;;;;;;;;;;20.30;34.50;;;;;;462932;257;1217;-45
2021/03/27 01:32:51;;;;;;;;;;;20.40;34.50;;;;;;462803;257;1257;-45
2021/03/27 01:34:52;;;;;;;;;;;20.40;34.50;;;;;;462891;257;1223;-45
2021/03/27 01:36:54;;;;;;;;;;;20.40;34.40;;;;;;463120;257;1026;-45
2021/03/27 01:38:55;;;;;;;;;;;20.40;34.30;;;;;;463027;257;1060;-45
2021/03/27 01:40:56;;;;;;;;;;;20.40;34.30;;;;;;462915;257;2147;-45
2021/03/27 01:42:57;;;;;;;;;;;20.50;34.40;;;;;;462841;257;1162;-45
2021/03/27 01:44:59;;;;;;;;;;;20.50;34.30;;;;;;463066;257;1064;-45
2021/03/27 01:47:00;;;;;;;;;;;20.50;34.30;;;;;;462803;257;1487;-45
2021/03/27 01:49:01;;;;;;;;;;;20.50;34.30;;;;;;462786;257;1157;-45
2021/03/27 01:51:03;;;;;;;;;;;20.50;34.30;;;;;;462757;257;1115;-45
2021/03/27 01:53:04;;;;;;;;;;;20.60;34.30;;;;;;462869;257;1124;-45
2021/03/27 01:55:05;;;;;;;;;;;20.60;34.20;;;;;;462946;257;1051;-45
2021/03/27 01:57:06;;;;;;;;;;;20.60;34.20;;;;;;462935;257;1107;-45
2021/03/27 01:59:08;;;;;;;;;;;20.60;34.20;;;;;;462879;257;1105;-45
2021/03/27 02:01:09;;;;;;;;;;;20.60;34.10;;;;;;462858;257;2207;-45
2021/03/27 02:03:10;;;;;;;;;;;20.60;34.10;;;;;;462843;257;1093;-45
2021/03/27 02:05:12;;;;;;;;;;;20.70;34.10;;;;;;462960;257;1178;-45
2021/03/27 02:07:13;;;;;;;;;;;20.70;34.10;;;;;;462981;257;1108;-45
2021/03/27 02:09:14;;;;;;;;;;;20.70;34.10;;;;;;462916;257;1017;-45
2021/03/27 02:11:15;;;;;;;;;;;20.70;34.10;;;;;;463003;257;1206;-45
2021/03/27 02:13:17;;;;;;;;;;;20.70;34.00;;;;;;462937;257;1117;-45
2021/03/27 02:15:18;;;;;;;;;;;20.70;34.10;;;;;;462842;257;1047;-45
2021/03/27 02:17:19;;;;;;;;;;;20.70;34.00;;;;;;462763;257;1103;-45
2021/03/27 02:19:20;;;;;;;;;;;20.80;34.10;;;;;;462958;257;1165;-45
2021/03/27 02:21:22;;;;;;;;;;;20.80;34.00;;;;;;462845;257;2136;-45
2021/03/27 02:23:23;;;;;;;;;;;20.80;34.00;;;;;;462793;257;1124;-45
2021/03/27 02:25:24;;;;;;;;;;;20.80;34.00;;;;;;463055;257;1098;-45
2021/03/27 02:27:26;;;;;;;;;;;20.80;34.00;;;;;;462963;257;991;-45
2021/03/27 02:29:32;;;;;;;;;;;20.80;34.00;;;;;;462923;257;1098;-45
2021/03/27 02:31:31;;;;;;;;;;;20.80;34.00;;;;;;462726;258;1955;-45
2021/03/27 02:33:32;;;;;;;;;;;20.80;34.00;;;;;;463018;257;1155;-45
2021/03/27 02:35:34;;;;;;;;;;;20.80;33.90;;;;;;463033;257;1179;-45
2021/03/27 02:37:35;;;;;;;;;;;20.80;34.00;;;;;;462903;257;1103;-45
2021/03/27 02:39:36;;;;;;;;;;;20.90;34.00;;;;;;462876;257;2195;-45
2021/03/27 02:41:37;;;;;;;;;;;20.90;34.00;;;;;;462890;257;1124;-45
2021/03/27 02:43:39;;;;;;;;;;;20.90;34.00;;;;;;462840;257;1274;-45
2021/03/27 02:45:40;;;;;;;;;;;20.90;34.00;;;;;;463014;257;1071;-45
2021/03/27 02:47:41;;;;;;;;;;;20.80;34.00;;;;;;462783;257;1079;-45
2021/03/27 02:49:43;;;;;;;;;;;20.80;34.00;;;;;;462888;257;1329;-45
2021/03/27 02:51:44;;;;;;;;;;;20.90;34.10;;;;;;462872;257;1087;-45
2021/03/27 02:53:46;;;;;;;;;;;20.90;34.00;;;;;;462984;257;1046;-45
2021/03/27 02:55:47;;;;;;;;;;;20.90;34.10;;;;;;462919;257;1109;-45
2021/03/27 02:57:48;;;;;;;;;;;20.90;34.10;;;;;;462850;257;1068;-45
2021/03/27 02:59:49;;;;;;;;;;;20.90;34.10;;;;;;463035;257;2210;-45
2021/03/27 03:01:51;;;;;;;;;;;20.90;34.00;;;;;;463095;257;1186;-45
2021/03/27 03:03:52;;;;;;;;;;;20.90;34.00;;;;;;462966;257;1097;-45
2021/03/27 03:05:53;;;;;;;;;;;20.90;34.00;;;;;;462951;257;1192;-45
2021/03/27 03:07:55;;;;;;;;;;;20.90;34.00;;;;;;462780;257;1111;-45
2021/03/27 03:09:56;;;;;;;;;;;20.90;34.00;;;;;;463001;257;1066;-45
2021/03/27 03:11:57;;;;;;;;;;;20.90;34.10;;;;;;462775;254;1344;-45
2021/03/27 03:13:58;;;;;;;;;;;20.90;34.00;;;;;;462875;257;1141;-45
2021/03/27 03:16:00;;;;;;;;;;;21.00;34.10;;;;;;462811;257;1284;-45
2021/03/27 03:18:01;;;;;;;;;;;21.00;34.10;;;;;;462943;257;1420;-45
2021/03/27 03:20:02;;;;;;;;;;;21.00;34.10;;;;;;462960;257;2176;-45
2021/03/27 03:22:04;;;;;;;;;;;21.00;34.10;;;;;;463160;257;1191;-45
2021/03/27 03:24:05;;;;;;;;;;;21.00;34.10;;;;;;462896;257;1223;-45
2021/03/27 03:26:06;;;;;;;;;;;21.00;34.10;;;;;;463221;257;1339;-45
2021/03/27 03:28:07;;;;;;;;;;;20.90;34.00;;;;;;462836;257;1212;-45
2021/03/27 03:30:09;;;;;;;;;;;21.00;34.10;;;;;;463008;257;1061;-45
2021/03/27 03:32:10;;;;;;;;;;;20.90;34.00;;;;;;463039;257;1292;-45
2021/03/27 03:34:11;;;;;;;;;;;21.00;34.10;;;;;;462886;257;1096;-45
2021/03/27 03:36:12;;;;;;;;;;;21.00;34.10;;;;;;462855;257;1220;-45
2021/03/27 03:38:14;;;;;;;;;;;21.00;34.00;;;;;;463005;257;1207;-45
2021/03/27 03:40:15;;;;;;;;;;;21.00;34.00;;;;;;462839;257;2203;-45
2021/03/27 03:42:16;;;;;;;;;;;21.00;34.00;;;;;;462808;257;1295;-45
2021/03/27 03:44:18;;;;;;;;;;;21.00;34.10;;;;;;462872;257;1054;-45
2021/03/27 03:46:19;;;;;;;;;;;21.00;34.10;;;;;;462983;257;1259;-45
2021/03/27 03:48:20;;;;;;;;;;;21.00;34.00;;;;;;462833;257;969;-46
2021/03/27 03:50:21;;;;;;;;;;;21.10;34.10;;;;;;462918;257;1270;-46
2021/03/27 03:52:23;;;;;;;;;;;21.10;34.00;;;;;;463049;257;1157;-45
2021/03/27 03:54:24;;;;;;;;;;;21.10;34.00;;;;;;462941;258;1108;-45
2021/03/27 03:56:25;;;;;;;;;;;21.10;34.00;;;;;;463095;257;1116;-45
2021/03/27 03:58:27;;;;;;;;;;;21.10;34.10;;;;;;462989;257;996;-45
2021/03/27 04:00:28;;;;;;;;;;;21.10;34.00;;;;;;462861;257;2148;-45
2021/03/27 04:02:29;;;;;;;;;;;21.10;34.00;;;;;;462787;257;1147;-45
2021/03/27 04:04:30;;;;;;;;;;;21.10;34.00;;;;;;462916;257;1223;-45
2021/03/27 04:06:32;;;;;;;;;;;21.10;34.00;;;;;;462904;257;1212;-45
2021/03/27 04:08:33;;;;;;;;;;;21.10;34.10;;;;;;462805;257;1086;-45
2021/03/27 04:10:34;;;;;;;;;;;21.10;34.00;;;;;;463147;257;1152;-45
2021/03/27 04:12:35;;;;;;;;;;;21.10;34.00;;;;;;462946;257;1095;-45
2021/03/27 04:14:37;;;;;;;;;;;21.10;34.10;;;;;;462927;257;1104;-45
2021/03/27 04:16:38;;;;;;;;;;;21.10;34.00;;;;;;463035;257;1125;-45
2021/03/27 04:18:39;;;;;;;;;;;21.10;34.00;;;;;;463123;257;1032;-45
2021/03/27 04:20:41;;;;;;;;;;;21.10;34.00;;;;;;462894;257;2160;-45
2021/03/27 04:22:42;;;;;;;;;;;21.10;34.00;;;;;;462979;257;1241;-45
2021/03/27 04:24:43;;;;;;;;;;;21.20;34.00;;;;;;462965;257;1043;-45
2021/03/27 04:26:44;;;;;;;;;;;21.20;34.00;;;;;;462898;257;1203;-45
2021/03/27 04:28:46;;;;;;;;;;;21.20;34.00;;;;;;462946;257;1107;-46
2021/03/27 04:30:47;;;;;;;;;;;21.20;33.90;;;;;;462824;257;1010;-45
2021/03/27 04:32:48;;;;;;;;;;;21.20;34.00;;;;;;462866;257;1164;-45
2021/03/27 04:34:51;;;;;;;;;;;21.20;34.00;;;;;;463240;257;1059;-45
2021/03/27 04:36:52;;;;;;;;;;;21.20;34.00;;;;;;462929;257;1202;-45
2021/03/27 04:38:54;;;;;;;;;;;21.20;33.90;;;;;;462888;257;1073;-45
2021/03/27 04:40:55;;;;;;;;;;;21.20;34.00;;;;;;463232;257;2148;-45
2021/03/27 04:42:56;;;;;;;;;;;21.20;33.90;;;;;;463176;257;1063;-45
2021/03/27 04:44:57;;;;;;;;;;;21.20;34.00;;;;;;462950;256;1048;-45
2021/03/27 04:46:59;;;;;;;;;;;21.20;33.90;;;;;;462948;257;1091;-45
2021/03/27 04:49:00;;;;;;;;;;;21.20;34.00;;;;;;462906;257;1080;-45
2021/03/27 04:51:01;;;;;;;;;;;21.20;34.00;;;;;;462873;257;1193;-45
2021/03/27 04:53:02;;;;;;;;;;;21.20;33.90;;;;;;462778;257;1370;-45
2021/03/27 04:55:04;;;;;;;;;;;21.30;33.90;;;;;;462967;257;1266;-45
2021/03/27 04:57:05;;;;;;;;;;;21.20;33.90;;;;;;462803;257;1214;-45
2021/03/27 04:59:06;;;;;;;;;;;21.20;33.90;;;;;;462756;257;1283;-45
2021/03/27 05:01:08;;;;;;;;;;;21.30;33.90;;;;;;462713;257;2203;-45
2021/03/27 05:03:09;;;;;;;;;;;21.30;34.00;;;;;;462841;257;1178;-45
2021/03/27 05:05:10;;;;;;;;;;;21.30;33.90;;;;;;463005;257;1091;-45
2021/03/27 05:07:12;;;;;;;;;;;21.30;34.00;;;;;;462925;257;1187;-45
2021/03/27 05:09:13;;;;;;;;;;;21.30;33.90;;;;;;462888;257;1107;-45
2021/03/27 05:11:14;;;;;;;;;;;21.30;33.90;;;;;;462845;257;1126;-45
2021/03/27 05:13:16;;;;;;;;;;;21.30;33.90;;;;;;462896;257;1086;-45
2021/03/27 05:15:17;;;;;;;;;;;21.30;33.90;;;;;;462877;257;1259;-45
2021/03/27 05:17:18;;;;;;;;;;;21.30;33.90;;;;;;462831;257;1076;-45
2021/03/27 05:19:19;;;;;;;;;;;21.30;33.90;;;;;;462847;257;1108;-45
2021/03/27 05:21:21;;;;;;;;;;;21.30;33.90;;;;;;462797;257;2195;-45
2021/03/27 05:23:22;;;;;;;;;;;21.30;33.90;;;;;;462970;257;1083;-45
2021/03/27 05:25:23;;;;;;;;;;;21.40;33.80;;;;;;462824;257;1061;-45
2021/03/27 05:27:25;;;;;;;;;;;21.30;34.00;;;;;;462811;257;1054;-45
2021/03/27 05:29:26;;;;;;;;;;;20.80;34.70;;;;;;462990;257;1132;-45
2021/03/27 05:31:27;;;;;;;;;;;20.40;35.60;;;;;;462987;257;1117;-45
2021/03/27 05:33:29;;;;;;;;;;;20.00;36.20;;;;;;463018;257;1196;-45
2021/03/27 05:35:30;;;;;;;;;;;19.80;36.70;;;;;;462896;257;1068;-45
2021/03/27 05:37:31;;;;;;;;;;;19.50;37.10;;;;;;462972;257;1196;-45
2021/03/27 05:39:32;;;;;;;;;;;19.40;37.60;;;;;;462926;257;1055;-45
2021/03/27 05:41:34;;;;;;;;;;;19.20;37.80;;;;;;463006;257;2147;-45
2021/03/27 05:43:35;;;;;;;;;;;19.30;37.80;;;;;;462844;257;1092;-45
2021/03/27 05:45:36;;;;;;;;;;;19.20;38.00;;;;;;462869;257;1070;-45
2021/03/27 05:47:37;;;;;;;;;;;19.10;38.10;;;;;;462835;257;1243;-45
2021/03/27 05:49:39;;;;;;;;;;;19.10;38.10;;;;;;462840;257;1243;-45
2021/03/27 05:51:40;;;;;;;;;;;19.10;38.10;;;;;;462681;257;1147;-45
2021/03/27 05:53:41;;;;;;;;;;;19.10;38.10;;;;;;462935;257;1159;-45
2021/03/27 05:55:42;;;;;;;;;;;19.00;38.20;;;;;;462932;257;1267;-45
2021/03/27 05:57:44;;;;;;;;;;;19.00;38.30;;;;;;462984;257;1086;-45
2021/03/27 05:59:45;;;;;;;;;;;19.00;38.20;;;;;;463027;257;1136;-45
2021/03/27 06:01:46;;;;;;;;;;;18.90;38.40;;;;;;463249;257;2215;-45
2021/03/27 06:03:48;;;;;;;;;;;18.90;38.40;;;;;;462891;257;1109;-45
2021/03/27 06:05:49;;;;;;;;;;;18.90;38.30;;;;;;462927;257;1099;-45
2021/03/27 06:07:50;;;;;;;;;;;18.90;38.40;;;;;;462906;257;1187;-45
2021/03/27 06:09:51;;;;;;;;;;;18.90;38.40;;;;;;462828;257;998;-45
2021/03/27 06:11:53;;;;;;;;;;;18.80;38.40;;;;;;462776;257;1080;-45
2021/03/27 06:13:54;;;;;;;;;;;18.80;38.50;;;;;;462894;257;1049;-45
2021/03/27 06:15:55;;;;;;;;;;;18.80;38.60;;;;;;462784;257;1144;-45
2021/03/27 06:17:57;;;;;;;;;;;18.70;38.60;;;;;;462925;257;1053;-45
2021/03/27 06:19:58;;;;;;;;;;;18.80;38.60;;;;;;462886;257;1077;-45
2021/03/27 06:21:59;;;;;;;;;;;18.80;38.60;;;;;;462776;257;2191;-45
2021/03/27 06:24:00;;;;;;;;;;;18.70;38.70;;;;;;463024;257;1551;-45
2021/03/27 06:26:02;;;;;;;;;;;18.70;38.70;;;;;;462908;257;1184;-45
2021/03/27 06:28:03;;;;;;;;;;;18.60;38.70;;;;;;462849;257;1095;-45
2021/03/27 06:30:04;;;;;;;;;;;18.60;38.80;;;;;;462909;257;1089;-45
2021/03/27 06:32:06;;;;;;;;;;;18.60;38.80;;;;;;462901;257;1272;-45
2021/03/27 06:34:07;;;;;;;;;;;18.60;38.80;;;;;;462893;257;1065;-45
2021/03/27 06:36:08;;;;;;;;;;;18.60;38.90;;;;;;462896;257;1073;-45
2021/03/27 06:38:09;;;;;;;;;;;18.60;38.80;;;;;;462795;257;1226;-45
2021/03/27 06:40:11;;;;;;;;;;;18.50;38.90;;;;;;462808;257;1078;-45
2021/03/27 06:42:12;;;;;;;;;;;18.50;38.90;;;;;;462970;257;2155;-45
2021/03/27 06:44:13;;;;;;;;;;;18.50;38.90;;;;;;462956;257;1152;-45
2021/03/27 06:46:15;;;;;;;;;;;18.50;38.90;;;;;;462870;257;1139;-45
2021/03/27 06:48:16;;;;;;;;;;;18.50;38.90;;;;;;462957;257;1110;-45
2021/03/27 06:50:17;;;;;;;;;;;18.40;38.90;;;;;;462990;257;1069;-45
2021/03/27 06:52:18;;;;;;;;;;;18.50;39.00;;;;;;462914;257;1690;-45
2021/03/27 06:54:20;;;;;;;;;;;18.40;39.00;;;;;;462866;257;1069;-45
2021/03/27 06:56:21;;;;;;;;;;;18.40;39.00;;;;;;462779;257;1139;-45
2021/03/27 06:58:22;;;;;;;;;;;18.40;38.90;;;;;;462790;257;1613;-45
2021/03/27 07:00:24;;;;;;;;;;;18.50;38.90;;;;;;463268;257;1088;-45
2021/03/27 07:02:25;;;;;;;;;;;18.40;38.90;;;;;;462848;257;2147;-45
2021/03/27 07:04:27;;;;;;;;;;;18.40;39.10;;;;;;462778;257;1049;-45
2021/03/27 07:06:29;;;;;;;;;;;18.40;39.10;;;;;;462771;257;1252;-45
2021/03/27 07:08:30;;;;;;;;;;;18.40;39.00;;;;;;462838;257;1275;-45
2021/03/27 07:10:31;;;;;;;;;;;18.40;39.00;;;;;;462969;257;1077;-45
2021/03/27 07:12:32;;;;;;;;;;;18.30;39.00;;;;;;462801;257;1083;-45
2021/03/27 07:14:34;;;;;;;;;;;18.40;39.00;;;;;;462970;257;1245;-45
2021/03/27 07:16:35;;;;;;;;;;;18.40;39.00;;;;;;462879;257;1418;-45
2021/03/27 07:18:37;;;;;;;;;;;18.30;39.00;;;;;;463137;257;1110;-45
2021/03/27 07:20:38;;;;;;;;;;;18.40;39.00;;;;;;462882;257;1620;-45
2021/03/27 07:22:41;;;;;;;;;;;18.40;39.00;;;;;;462882;257;2144;-45
2021/03/27 07:24:41;;;;;;;;;;;18.30;39.00;;;;;;462838;257;1455;-45
2021/03/27 07:26:42;;;;;;;;;;;18.40;39.00;;;;;;462995;257;1202;-45
2021/03/27 07:28:43;;;;;;;;;;;18.40;38.90;;;;;;462712;257;1158;-45
2021/03/27 07:30:45;;;;;;;;;;;18.40;38.90;;;;;;462824;257;1051;-45
2021/03/27 07:32:46;;;;;;;;;;;18.40;39.00;;;;;;462734;257;1276;-45
2021/03/27 07:34:47;;;;;;;;;;;18.40;39.00;;;;;;462930;257;1048;-45
2021/03/27 07:36:49;;;;;;;;;;;18.40;38.90;;;;;;462766;257;1244;-45
2021/03/27 07:38:50;;;;;;;;;;;18.30;39.00;;;;;;462916;257;1182;-45
2021/03/27 07:40:51;;;;;;;;;;;18.30;39.10;;;;;;463290;257;1172;-45
2021/03/27 07:42:52;;;;;;;;;;;18.20;39.10;;;;;;462881;257;2136;-45
2021/03/27 07:44:54;;;;;;;;;;;18.20;39.20;;;;;;462921;257;1038;-45
2021/03/27 07:46:55;;;;;;;;;;;18.20;39.20;;;;;;463130;257;1539;-45
2021/03/27 07:48:56;;;;;;;;;;;18.20;39.20;;;;;;463000;257;1086;-45
2021/03/27 07:50:57;;;;;;;;;;;18.20;39.20;;;;;;462924;257;1115;-45
2021/03/27 07:52:59;;;;;;;;;;;18.20;39.20;;;;;;463078;257;1179;-45
2021/03/27 07:55:00;;;;;;;;;;;18.40;38.80;;;;;;462896;257;1089;-45
2021/03/27 07:57:01;;;;;;;;;;;18.60;38.50;;;;;;462902;257;1343;-45
2021/03/27 07:59:03;;;;;;;;;;;18.60;38.30;;;;;;462802;257;1120;-45
2021/03/27 08:01:04;;;;;;;;;;;18.60;38.30;;;;;;462897;257;1082;-45
2021/03/27 08:03:05;;;;;;;;;;;18.60;38.30;;;;;;462798;257;2140;-45
2021/03/27 08:05:06;;;;;;;;;;;18.60;38.40;;;;;;462891;257;1103;-44
2021/03/27 08:07:08;;;;;;;;;;;18.50;38.50;;;;;;462881;257;1053;-45
2021/03/27 08:09:09;;;;;;;;;;;18.50;38.60;;;;;;462951;257;1172;-45
2021/03/27 08:11:10;;;;;;;;;;;18.60;38.50;;;;;;462875;257;1086;-45
2021/03/27 08:13:12;;;;;;;;;;;18.60;38.40;;;;;;463163;257;1151;-45
2021/03/27 08:15:13;;;;;;;;;;;18.50;38.40;;;;;;462906;257;1070;-45
2021/03/27 08:17:14;;;;;;;;;;;18.50;38.50;;;;;;462930;257;1038;-45
2021/03/27 08:19:16;;;;;;;;;;;18.50;38.50;;;;;;463097;257;1120;-45
2021/03/27 08:21:17;;;;;;;;;;;18.60;38.30;;;;;;462693;258;1280;-45
2021/03/27 08:23:18;;;;;;;;;;;18.60;38.20;;;;;;462778;257;2200;-45
2021/03/27 08:25:19;;;;;;;;;;;18.60;38.30;;;;;;462917;257;1126;-45
2021/03/27 08:27:20;;;;;;;;;;;18.60;38.40;;;;;;462741;257;1116;-45
2021/03/27 08:29:28;;;;;;;;;;;18.60;38.40;;;;;;462882;257;1063;-45
2021/03/27 08:31:30;;;;;;;;;;;18.50;38.40;;;;;;462906;255;1139;-45
2021/03/27 08:33:31;;;;;;;;;;;18.50;38.50;;;;;;462881;257;1076;-45
2021/03/27 08:35:32;;;;;;;;;;;18.50;38.50;;;;;;462972;257;1085;-45
2021/03/27 08:37:34;;;;;;;;;;;18.50;38.50;;;;;;462897;257;1185;-45
2021/03/27 08:39:35;;;;;;;;;;;18.40;38.60;;;;;;462995;257;1166;-45
2021/03/27 08:41:36;;;;;;;;;;;18.40;38.60;;;;;;462869;257;2198;-45
2021/03/27 08:43:38;;;;;;;;;;;18.40;38.60;;;;;;462996;257;1101;-45
2021/03/27 08:45:39;;;;;;;;;;;18.40;38.70;;;;;;462986;257;1208;-45
2021/03/27 08:47:40;;;;;;;;;;;18.30;38.70;;;;;;462744;257;1277;-44
2021/03/27 08:49:42;;;;;;;;;;;18.40;38.80;;;;;;462793;257;1581;-45
2021/03/27 08:51:43;;;;;;;;;;;18.30;38.70;;;;;;462633;258;1444;-44
2021/03/27 08:53:44;;;;;;;;;;;18.30;38.70;;;;;;462723;257;1141;-44
2021/03/27 08:55:45;;;;;;;;;;;18.40;38.80;;;;;;462799;254;1255;-45
2021/03/27 08:57:47;;;;;;;;;;;18.40;38.70;;;;;;462858;257;1051;-44
2021/03/27 08:59:48;;;;;;;;;;;18.40;38.70;;;;;;462872;257;1067;-45
2021/03/27 09:01:49;;;;;;;;;;;18.40;38.70;;;;;;462807;257;2199;-45
2021/03/27 09:03:51;;;;;;;;;;;18.40;38.60;;;;;;462811;257;1084;-45
2021/03/27 09:05:52;;;;;;;;;;;18.50;38.50;;;;;;463192;257;1150;-45
2021/03/27 09:07:53;;;;;;;;;;;18.50;38.50;;;;;;462928;257;1060;-45
2021/03/27 09:09:54;;;;;;;;;;;18.40;38.50;;;;;;462931;257;1325;-45
2021/03/27 09:12:03;;;;;;;;;;;18.50;38.50;;;;;;462855;257;1140;-45
2021/03/27 09:13:58;;;;;;;;;;;18.50;38.50;;;;;;462454;258;2079;-45
2021/03/27 09:16:00;;;;;;;;;;;18.50;38.40;;;;;;462718;257;1106;-45
2021/03/27 09:18:01;;;;;;;;;;;18.60;38.30;;;;;;462858;257;1093;-46
2021/03/27 09:20:02;;;;;;;;;;;18.60;38.30;;;;;;463063;257;1020;-45
2021/03/27 09:22:04;;;;;;;;;;;18.50;38.20;;;;;;462827;257;2155;-45
2021/03/27 09:24:05;;;;;;;;;;;18.60;38.30;;;;;;462952;257;1176;-45
2021/03/27 09:26:07;;;;;;;;;;;18.50;38.30;;;;;;463069;257;1105;-45
2021/03/27 09:28:08;;;;;;;;;;;18.60;38.30;;;;;;462969;257;1114;-45
2021/03/27 09:30:09;;;;;;;;;;;18.60;38.20;;;;;;463036;257;1068;-45
2021/03/27 09:32:10;;;;;;;;;;;18.60;38.20;;;;;;463084;257;1660;-45
2021/03/27 09:34:12;;;;;;;;;;;18.50;38.30;;;;;;462945;257;1118;-45
2021/03/27 09:36:13;;;;;;;;;;;18.40;38.40;;;;;;462931;257;1207;-45
2021/03/27 09:38:15;;;;;;;;;;;18.40;38.60;;;;;;462723;257;1201;-45
2021/03/27 09:40:16;;;;;;;;;;;18.40;38.60;;;;;;462816;257;1181;-45
2021/03/27 09:42:17;;;;;;;;;;;18.30;38.80;;;;;;462806;257;2144;-45
2021/03/27 09:44:19;;;;;;;;;;;18.20;39.00;;;;;;462810;257;1097;-45
2021/03/27 09:46:21;;;;;;;;;;;18.10;39.10;;;;;;462869;257;1165;-45
2021/03/27 09:48:26;;;;;;;;;;;18.10;39.20;;;;;;462828;257;1172;-45
2021/03/27 09:50:23;;;;;;;;;;;18.00;39.20;;;;;;462652;257;1916;-45
2021/03/27 09:52:25;;;;;;;;;;;18.00;39.30;;;;;;462857;257;1277;-45
2021/03/27 09:54:26;;;;;;;;;;;18.00;39.30;;;;;;463060;257;1193;-45
2021/03/27 09:56:31;;;;;;;;;;;18.00;39.30;;;;;;463047;254;1211;-45
2021/03/27 09:58:29;;;;;;;;;;;18.00;39.30;;;;;;462749;257;1333;-44
2021/03/27 10:00:30;;;;;;;;;;;18.00;39.30;;;;;;463285;257;1092;-45
2021/03/27 10:02:31;;;;;;;;;;;18.10;39.20;;;;;;463033;257;2148;-45
2021/03/27 10:04:32;;;;;;;;;;;18.10;39.10;;;;;;462794;257;1086;-45
2021/03/27 10:06:34;;;;;;;;;;;18.00;39.20;;;;;;462833;257;1283;-45
2021/03/27 10:08:35;;;;;;;;;;;18.00;39.20;;;;;;462711;257;1049;-45
2021/03/27 10:10:36;;;;;;;;;;;18.10;39.20;;;;;;462845;257;1209;-45
2021/03/27 10:12:38;;;;;;;;;;;18.10;39.20;;;;;;462712;257;1339;-45
2021/03/27 10:14:39;;;;;;;;;;;18.10;39.10;;;;;;462828;257;1144;-45
2021/03/27 10:16:40;;;;;;;;;;;18.10;39.10;;;;;;463178;257;1138;-45
2021/03/27 10:18:41;;;;;;;;;;;18.00;39.10;;;;;;462843;257;1087;-45
2021/03/27 10:20:43;;;;;;;;;;;18.10;39.20;;;;;;463088;257;1089;-45
2021/03/27 10:22:44;;;;;;;;;;;18.00;39.20;;;;;;462765;257;2215;-44
2021/03/27 10:24:46;;;;;;;;;;;18.00;39.20;;;;;;463081;257;1172;-45
2021/03/27 10:26:47;;;;;;;;;;;18.00;39.20;;;;;;462865;257;1104;-45
2021/03/27 10:28:48;;;;;;;;;;;18.00;39.20;;;;;;462986;257;1061;-45
2021/03/27 10:30:49;;;;;;;;;;;18.00;39.30;;;;;;462887;257;1368;-45
2021/03/27 10:32:51;;;;;;;;;;;18.00;39.30;;;;;;462786;257;1200;-45
2021/03/27 10:34:52;;;;;;;;;;;18.00;39.30;;;;;;462962;257;1081;-45
2021/03/27 10:36:54;;;;;;;;;;;18.00;39.30;;;;;;462685;257;1321;-44
2021/03/27 10:38:55;;;;;;;;;;;18.00;39.20;;;;;;462728;257;1146;-45
2021/03/27 10:40:56;;;;;;;;;;;18.00;39.30;;;;;;462807;257;1197;-45
2021/03/27 10:42:57;;;;;;;;;;;17.90;39.30;;;;;;462761;257;2199;-45
2021/03/27 10:44:59;;;;;;;;;;;17.90;39.40;;;;;;462847;257;1108;-45
2021/03/27 10:47:00;;;;;;;;;;;17.90;39.30;;;;;;462805;257;1312;-45
2021/03/27 10:49:01;;;;;;;;;;;17.90;39.20;;;;;;462862;257;1096;-45
2021/03/27 10:51:03;;;;;;;;;;;18.10;39.00;;;;;;463017;257;1071;-45
2021/03/27 10:53:04;;;;;;;;;;;18.50;38.30;;;;;;462837;257;1102;-45
2021/03/27 10:55:05;;;;;;;;;;;18.90;37.60;;;;;;462899;257;1225;-45
2021/03/27 10:57:06;;;;;;;;;;;19.10;37.10;;;;;;462813;257;1076;-45
2021/03/27 10:59:08;;;;;;;;;;;19.20;36.80;;;;;;462821;257;1153;-45
2021/03/27 11:01:09;;;;;;;;;;;19.30;36.50;;;;;;462806;257;1160;-45
2021/03/27 11:03:12;;;;;;;;;;;19.40;36.30;;;;;;462793;257;2199;-45
2021/03/27 11:05:13;;;;;;;;;;;19.50;36.20;;;;;;462792;257;1121;-45
2021/03/27 11:07:14;;;;;;;;;;;19.60;36.10;;;;;;463027;257;1117;-45
2021/03/27 11:09:15;;;;;;;;;;;19.60;36.00;;;;;;462873;257;1060;-45
2021/03/27 11:11:17;;;;;;;;;;;19.70;35.90;;;;;;462884;257;1213;-45
2021/03/27 11:13:18;;;;;;;;;;;19.70;35.80;;;;;;463068;257;1186;-45
2021/03/27 11:15:19;;;;;;;;;;;19.80;35.80;;;;;;462958;257;1124;-45
2021/03/27 11:17:21;;;;;;;;;;;19.80;35.70;;;;;;463289;257;1261;-45
2021/03/27 11:19:22;;;;;;;;;;;19.80;35.70;;;;;;463023;257;1293;-45
2021/03/27 11:21:23;;;;;;;;;;;19.90;35.60;;;;;;462849;257;1115;-45
2021/03/27 11:23:25;;;;;;;;;;;19.90;35.50;;;;;;462823;257;2211;-45
2021/03/27 11:25:26;;;;;;;;;;;19.90;35.50;;;;;;462888;257;1197;-45
2021/03/27 11:27:27;;;;;;;;;;;20.00;35.40;;;;;;462920;257;1074;-45
2021/03/27 11:29:28;;;;;;;;;;;20.00;35.40;;;;;;462833;257;1102;-45
2021/03/27 11:31:30;;;;;;;;;;;20.00;35.30;;;;;;462983;257;1112;-45
2021/03/27 11:33:31;;;;;;;;;;;20.00;35.30;;;;;;462812;257;1059;-45
2021/03/27 11:35:32;;;;;;;;;;;20.10;35.20;;;;;;463059;257;1031;-45
2021/03/27 11:37:35;;;;;;;;;;;20.10;35.20;;;;;;462942;257;1057;-45
2021/03/27 11:39:35;;;;;;;;;;;20.20;35.20;;;;;;462805;257;1713;-45
2021/03/27 11:41:36;;;;;;;;;;;20.20;35.20;;;;;;462976;257;1220;-45
2021/03/27 11:43:37;;;;;;;;;;;20.20;35.10;;;;;;463088;257;2211;-45
2021/03/27 11:45:39;;;;;;;;;;;20.20;35.00;;;;;;462802;257;1072;-45
2021/03/27 11:47:40;;;;;;;;;;;20.20;35.00;;;;;;462779;257;1128;-45
2021/03/27 11:49:44;;;;;;;;;;;20.30;35.00;;;;;;462822;257;1085;-45
2021/03/27 11:51:45;;;;;;;;;;;20.30;35.00;;;;;;462409;257;1168;-45
2021/03/27 11:53:46;;;;;;;;;;;20.30;34.90;;;;;;462883;257;1098;-45
2021/03/27 11:55:48;;;;;;;;;;;20.30;34.80;;;;;;462891;257;1156;-45
2021/03/27 11:57:49;;;;;;;;;;;20.40;34.80;;;;;;462813;257;1124;-45